createdAt,value
2019-02-06T00:03:59.632Z,74.01
2019-02-06T00:09:01.838Z,73.76
2019-02-06T00:14:04.950Z,73.72
2019-02-06T00:19:07.063Z,73.87
2019-02-06T00:24:09.252Z,73.51
2019-02-06T00:29:11.319Z,73.25
2019-02-06T00:34:13.439Z,74.14
2019-02-06T00:39:15.653Z,74.14
2019-02-06T00:44:17.767Z,73.39
2019-02-06T00:49:19.986Z,73.27
2019-02-06T00:54:21.880Z,72.84
2019-02-06T00:59:24.262Z,73.36
2019-02-06T01:04:26.834Z,73.07
2019-02-06T01:09:28.866Z,73.60
2019-02-06T01:14:30.881Z,73.60
2019-02-06T01:19:32.988Z,74.07
2019-02-06T01:24:34.946Z,73.69
2019-02-06T01:29:37.099Z,73.98
2019-02-06T01:34:40.138Z,75.14
2019-02-06T01:39:43.347Z,75.63
2019-02-06T01:44:45.551Z,75.06
2019-02-06T01:49:47.465Z,75.38
2019-02-06T01:54:49.516Z,76.57
2019-02-06T01:59:51.932Z,76.57
2019-02-06T02:04:53.914Z,77.17
2019-02-06T02:09:55.829Z,77.00
2019-02-06T02:14:57.739Z,77.55
2019-02-06T02:19:59.658Z,78.14
2019-02-06T02:25:02.893Z,78.39
2019-02-06T02:30:08.084Z,78.50
2019-02-06T02:35:11.220Z,78.35
2019-02-06T02:40:13.498Z,78.24
2019-02-06T02:45:16.610Z,78.24
2019-02-06T02:50:18.939Z,78.16
2019-02-06T02:55:20.970Z,77.70
2019-02-06T03:00:29.808Z,77.98
2019-02-06T03:05:33.920Z,77.52
2019-02-06T03:10:35.933Z,78.03
2019-02-06T03:15:38.347Z,77.87
2019-02-06T03:20:40.381Z,77.33
2019-02-06T03:25:42.309Z,77.34
2019-02-06T03:30:44.303Z,77.86
2019-02-06T03:35:46.231Z,77.94
2019-02-06T03:40:48.276Z,78.17
2019-02-06T03:45:50.273Z,78.76
2019-02-06T03:50:52.183Z,79.07
2019-02-06T03:55:55.406Z,79.14
2019-02-06T04:00:57.399Z,79.21
2019-02-06T04:05:59.325Z,79.16
2019-02-06T04:11:01.420Z,79.22
2019-02-06T04:16:03.942Z,79.88
2019-02-06T04:21:06.135Z,79.94
2019-02-06T04:26:08.392Z,80.08
2019-02-06T04:31:10.290Z,80.15
2019-02-06T04:36:12.445Z,80.39
2019-02-06T04:41:17.101Z,80.24
2019-02-06T04:46:19.110Z,80.13
2019-02-06T04:51:20.970Z,80.71
2019-02-06T04:56:23.014Z,80.95
2019-02-06T05:01:25.170Z,81.14
2019-02-06T05:06:27.216Z,81.20
2019-02-06T05:11:29.478Z,81.20
2019-02-06T05:16:31.893Z,81.41
2019-02-06T05:21:33.989Z,80.85
2019-02-06T05:26:38.580Z,80.61
2019-02-06T05:31:40.573Z,80.92
2019-02-06T05:36:42.532Z,81.84
2019-02-06T05:41:44.564Z,81.66
2019-02-06T05:46:46.493Z,81.02
2019-02-06T05:51:48.474Z,80.68
2019-02-06T05:56:50.860Z,80.69
2019-02-06T06:01:52.753Z,80.38
2019-02-06T06:06:54.710Z,80.44
2019-02-06T06:11:56.639Z,80.00
2019-02-06T06:16:58.831Z,80.20
2019-02-06T06:22:00.723Z,80.47
2019-02-06T06:27:02.682Z,80.31
2019-02-06T06:32:04.707Z,80.37
2019-02-06T06:37:07.980Z,80.59
2019-02-06T06:42:10.145Z,79.78
2019-02-06T06:47:12.168Z,79.75
2019-02-06T06:52:14.487Z,79.95
2019-02-06T06:57:16.405Z,79.62
2019-02-06T07:02:18.303Z,79.42
2019-02-06T07:07:20.254Z,79.45
2019-02-06T07:12:22.209Z,79.02
2019-02-06T07:17:24.141Z,78.90
2019-02-06T07:22:26.032Z,78.46
2019-02-06T07:27:29.853Z,77.90
2019-02-06T07:32:32.096Z,77.86
2019-02-06T07:37:34.245Z,77.51
2019-02-06T07:42:36.333Z,77.25
2019-02-06T07:47:38.388Z,77.90
2019-02-06T07:52:40.397Z,76.67
2019-02-06T07:57:42.694Z,76.65
2019-02-06T08:02:44.898Z,76.26
2019-02-06T08:07:47.566Z,75.71
2019-02-06T08:12:50.056Z,76.17
2019-02-06T08:17:52.059Z,75.52
2019-02-06T08:22:54.178Z,75.60
2019-02-06T08:27:56.332Z,75.78
2019-02-06T08:32:58.745Z,75.50
2019-02-06T08:38:00.868Z,75.05
2019-02-06T08:43:03.189Z,74.20
2019-02-06T08:48:05.421Z,73.14
2019-02-06T08:53:07.720Z,73.26
2019-02-06T08:58:09.805Z,72.63
2019-02-06T09:03:12.442Z,72.48
2019-02-06T09:08:14.347Z,71.75
2019-02-06T09:13:16.655Z,70.98
2019-02-06T09:18:18.671Z,70.87
2019-02-06T09:23:20.600Z,70.87
2019-02-06T09:28:22.689Z,69.09
2019-02-06T09:33:24.856Z,69.09
2019-02-06T09:38:26.760Z,68.26
2019-02-06T09:43:28.676Z,66.91
2019-02-06T09:48:30.574Z,66.91
2019-02-06T09:53:32.685Z,66.77
2019-02-06T09:58:34.576Z,67.01
2019-02-06T10:03:36.602Z,66.59
2019-02-06T10:08:38.626Z,66.56
2019-02-06T10:13:40.940Z,65.65
2019-02-06T10:18:42.936Z,65.55
2019-02-06T10:23:45.049Z,64.64
2019-02-06T10:28:47.044Z,64.64
2019-02-06T10:33:49.082Z,64.25
2019-02-06T10:38:51.151Z,62.83
2019-02-06T10:43:53.067Z,63.33
2019-02-06T10:48:54.958Z,62.33
2019-02-06T10:53:58.367Z,62.49
2019-02-06T10:59:00.265Z,63.16
2019-02-06T11:04:02.380Z,62.98
2019-02-06T11:09:06.222Z,62.00
2019-02-06T11:14:08.239Z,61.15
2019-02-06T11:19:10.253Z,60.02
2019-02-06T11:24:12.307Z,60.08
2019-02-06T11:29:14.218Z,60.02
2019-02-06T11:34:16.552Z,59.98
2019-02-06T11:39:22.779Z,59.03
2019-02-06T11:44:24.703Z,59.51
2019-02-06T11:49:33.153Z,58.67
2019-02-06T11:54:35.261Z,57.20
2019-02-06T11:59:37.161Z,56.65
2019-02-06T12:04:39.185Z,54.93
2019-02-06T12:09:41.271Z,55.30
2019-02-06T12:14:43.193Z,54.65
2019-02-06T12:19:45.075Z,54.93
2019-02-06T12:24:47.292Z,55.10
2019-02-06T12:29:49.312Z,54.55
2019-02-06T12:34:51.535Z,53.33
2019-02-06T12:39:54.136Z,52.39
2019-02-06T12:44:58.956Z,51.65
2019-02-06T12:50:00.025Z,52.83
2019-02-06T12:55:05.551Z,53.05
2019-02-06T13:00:12.627Z,54.37
2019-02-06T13:05:14.853Z,53.64
2019-02-06T13:10:17.233Z,53.71
2019-02-06T13:15:19.804Z,53.81
2019-02-06T13:20:23.679Z,52.72
2019-02-06T13:25:25.676Z,51.46
2019-02-06T13:30:29.597Z,51.05
2019-02-06T13:35:31.608Z,49.97
2019-02-06T13:40:44.735Z,49.54
2019-02-06T13:45:40.243Z,48.50
2019-02-06T13:50:42.433Z,48.74
2019-02-06T13:55:44.360Z,48.20
2019-02-06T14:00:46.597Z,49.52
2019-02-06T14:05:49.099Z,49.13
2019-02-06T14:11:00.126Z,50.73
2019-02-06T14:15:55.735Z,50.99
2019-02-06T14:20:57.883Z,50.22
2019-02-06T14:26:23.131Z,48.81
2019-02-06T14:31:45.268Z,47.71
2019-02-06T14:37:09.318Z,46.00
2019-02-06T14:42:36.931Z,46.70
2019-02-06T14:48:10.907Z,48.33
2019-02-06T14:53:29.310Z,51.26
2019-02-06T14:58:49.702Z,51.74
2019-02-06T15:04:29.396Z,49.44
2019-02-06T15:10:00.338Z,52.50
2019-02-06T15:15:33.856Z,53.67
2019-02-06T15:21:19.630Z,54.25
2019-02-06T15:26:57.061Z,56.82
2019-02-06T15:32:37.540Z,57.80
2019-02-06T15:38:21.386Z,58.40
2019-02-06T15:43:59.824Z,59.63
2019-02-06T15:49:23.895Z,60.46
2019-02-06T15:54:44.171Z,59.77
2019-02-06T16:00:28.559Z,60.51
2019-02-06T16:05:55.937Z,61.40
2019-02-06T16:11:42.343Z,60.92
2019-02-06T16:17:11.715Z,61.31
2019-02-06T16:22:39.585Z,62.16
2019-02-06T16:28:05.192Z,62.69
2019-02-06T16:33:35.903Z,62.52
2019-02-06T16:38:52.612Z,62.76
2019-02-06T16:44:34.864Z,63.95
2019-02-06T16:50:17.139Z,64.66
2019-02-06T16:55:48.726Z,64.20
2019-02-06T17:01:11.919Z,65.58
2019-02-06T17:06:53.733Z,65.29
2019-02-06T17:12:46.395Z,64.67
2019-02-06T17:18:23.992Z,64.05
2019-02-06T17:24:13.956Z,63.19
2019-02-06T17:29:55.229Z,63.03
2019-02-06T17:35:19.597Z,63.77
2019-02-06T17:40:35.597Z,63.83
2019-02-06T17:46:00.613Z,64.67
2019-02-06T17:51:41.760Z,65.08
2019-02-06T17:56:43.776Z,64.90
2019-02-06T18:01:50.120Z,65.06
2019-02-06T18:06:52.322Z,64.61
2019-02-06T18:11:54.235Z,64.33
2019-02-06T18:16:56.587Z,64.24
2019-02-06T18:21:58.460Z,65.00
2019-02-06T18:27:00.513Z,65.19
2019-02-06T18:32:03.362Z,65.84
2019-02-06T18:37:05.545Z,65.43
2019-02-06T18:42:07.541Z,65.86
2019-02-06T18:47:09.555Z,65.92
2019-02-06T18:52:20.260Z,65.78
2019-02-06T18:57:16.121Z,66.01
2019-02-06T19:02:18.209Z,66.41
2019-02-06T19:07:20.287Z,66.96
2019-02-06T19:12:22.503Z,68.57
2019-02-06T19:17:24.533Z,68.57
2019-02-06T19:22:26.425Z,68.72
2019-02-06T19:27:28.331Z,69.18
2019-02-06T19:32:30.268Z,69.22
2019-02-06T19:37:32.176Z,68.72
2019-02-06T19:42:34.087Z,67.90
2019-02-06T19:47:36.218Z,66.25
2019-02-06T19:52:38.112Z,66.25
2019-02-06T19:57:40.318Z,65.99
2019-02-06T20:02:43.627Z,65.70
2019-02-06T20:07:45.545Z,66.37
2019-02-06T20:12:47.849Z,67.35
2019-02-06T20:17:51.148Z,67.00
2019-02-06T20:22:53.359Z,66.97
2019-02-06T20:27:55.490Z,67.39
2019-02-06T20:32:57.427Z,67.67
2019-02-06T20:37:59.432Z,67.61
2019-02-06T20:43:01.532Z,68.98
2019-02-06T20:48:03.895Z,68.77
2019-02-06T20:53:05.991Z,68.47
2019-02-06T20:58:07.988Z,69.16
2019-02-06T21:03:10.016Z,68.86
2019-02-06T21:08:12.037Z,67.01
2019-02-06T21:13:13.984Z,66.24
2019-02-06T21:18:16.019Z,65.58
2019-02-06T21:23:18.885Z,65.42
2019-02-06T21:28:20.992Z,65.32
2019-02-06T21:33:22.907Z,65.03
2019-02-06T21:38:24.796Z,65.76
2019-02-06T21:43:26.882Z,65.71
2019-02-06T21:48:28.791Z,66.02
2019-02-06T21:53:30.683Z,65.94
2019-02-06T21:58:32.631Z,65.75
2019-02-06T22:03:34.819Z,66.11
2019-02-06T22:08:36.811Z,66.48
2019-02-06T22:13:40.764Z,66.34
2019-02-06T22:18:42.664Z,65.42
2019-02-06T22:23:44.649Z,64.99
2019-02-06T22:28:46.886Z,65.53
2019-02-06T22:33:49.329Z,66.09
2019-02-06T22:38:51.763Z,66.89
2019-02-06T22:43:53.725Z,67.90
2019-02-06T22:48:55.740Z,68.48
2019-02-06T22:53:57.649Z,67.76
2019-02-06T22:58:59.653Z,66.40
2019-02-06T23:04:01.960Z,66.64
2019-02-06T23:09:06.603Z,67.15
2019-02-06T23:14:17.127Z,67.07
2019-02-06T23:19:12.875Z,68.62
2019-02-06T23:24:15.015Z,68.69
2019-02-06T23:29:17.309Z,67.69
2019-02-06T23:34:19.218Z,67.37
2019-02-06T23:39:21.316Z,67.56
2019-02-06T23:44:28.937Z,68.63
2019-02-06T23:49:28.130Z,68.78
2019-02-06T23:54:30.147Z,68.49
2019-02-06T23:59:32.170Z,69.93
